Time;durP1;ratioP1;P1;durP2;ratioP2;P2;SDS_P1;SDS_P2;PMS_P1;PMS_P2;Temp;Humidity;BMP_temperature;BMP_pressure;BME280_temperature;BME280_humidity;BME280_pressure;Samples;Min_cycle;Max_cycle;Signal;HPM_P1;HPM_P2
2021/04/18 00:01:33;;;;;;;;;;;4.60;99.90;;;;;;4917602;29;19934;-65
2021/04/18 00:04:02;;;;;;;;;;;4.60;99.90;;;;;;4917432;29;20303;-65
2021/04/18 00:06:29;;;;;;;;;;;4.60;99.90;;;;;;4917633;28;19938;-64
2021/04/18 00:08:57;;;;;;;;;;;4.60;99.90;;;;;;4917523;29;19934;-64
2021/04/18 00:11:25;;;;;;;;;;;4.60;99.90;;;;;;4931878;29;19949;-67
2021/04/18 00:16:44;;;;;;;;;;;4.60;99.90;;;;;;4917123;29;19927;-65
2021/04/18 00:19:13;;;;;;;;;;;4.70;99.90;;;;;;4917247;29;19934;-64
2021/04/18 00:21:40;;;;;;;;;;;4.70;99.90;;;;;;4947881;29;20261;-64
2021/04/18 00:24:12;;;;;;;;;;;4.60;99.90;;;;;;4931817;29;19934;-65
2021/04/18 00:26:39;;;;;;;;;;;4.60;99.90;;;;;;4932068;29;19995;-64
2021/04/18 00:29:07;;;;;;;;;;;4.70;99.90;;;;;;4916852;29;19995;-65
2021/04/18 00:31:34;;;;;;;;;;;4.70;99.90;;;;;;4916958;29;19928;-65
2021/04/18 00:34:02;;;;;;;;;;;4.70;99.90;;;;;;4917023;29;19934;-65
2021/04/18 00:36:32;;;;;;;;;;;4.70;99.90;;;;;;4917347;29;19927;-65
2021/04/18 00:38:59;;;;;;;;;;;4.70;99.90;;;;;;4917078;29;19931;-65
2021/04/18 00:41:26;;;;;;;;;;;4.70;99.90;;;;;;4917220;29;19928;-67
2021/04/18 00:43:54;;;;;;;;;;;4.80;99.90;;;;;;4917096;29;20029;-65
2021/04/18 00:46:22;;;;;;;;;;;4.70;99.90;;;;;;4947835;29;19927;-64
2021/04/18 00:48:49;;;;;;;;;;;4.70;99.90;;;;;;4916997;29;19931;-65
2021/04/18 00:51:17;;;;;;;;;;;4.70;99.90;;;;;;4917224;29;19938;-65
2021/04/18 00:53:45;;;;;;;;;;;4.70;99.90;;;;;;4932176;29;19927;-65
2021/04/18 00:56:12;;;;;;;;;;;4.70;99.90;;;;;;4917106;29;20380;-64
2021/04/18 00:58:40;;;;;;;;;;;4.70;99.90;;;;;;4948064;29;19950;-64
2021/04/18 01:01:08;;;;;;;;;;;4.70;99.90;;;;;;4948194;29;19977;-65
2021/04/18 01:03:39;;;;;;;;;;;4.70;99.90;;;;;;4954755;29;20490;-65
2021/04/18 01:06:07;;;;;;;;;;;4.70;99.90;;;;;;4931883;29;19919;-65
2021/04/18 01:08:47;;;;;;;;;;;4.70;99.90;;;;;;4931182;29;19928;-65
2021/04/18 01:11:14;;;;;;;;;;;4.70;99.90;;;;;;4942210;29;19935;-64
2021/04/18 01:13:43;;;;;;;;;;;4.70;99.90;;;;;;4947946;28;19936;-64
2021/04/18 01:16:12;;;;;;;;;;;4.70;99.90;;;;;;4947480;29;19927;-66
2021/04/18 01:18:40;;;;;;;;;;;4.60;99.90;;;;;;4934144;29;19934;-66
2021/04/18 01:21:10;;;;;;;;;;;4.60;99.90;;;;;;4951178;29;19927;-65
2021/04/18 01:23:55;;;;;;;;;;;4.60;99.90;;;;;;4920418;29;20439;-67
2021/04/18 01:27:27;;;;;;;;;;;4.60;99.90;;;;;;4956192;29;19934;-65
2021/04/18 01:29:56;;;;;;;;;;;4.60;99.90;;;;;;4956138;29;19926;-67
2021/04/18 01:32:23;;;;;;;;;;;4.60;99.90;;;;;;4932168;29;20006;-67
2021/04/18 01:34:52;;;;;;;;;;;4.60;99.90;;;;;;4920036;29;19991;-65
2021/04/18 01:37:21;;;;;;;;;;;4.60;99.90;;;;;;4920115;29;19931;-65
2021/04/18 01:39:49;;;;;;;;;;;4.60;99.90;;;;;;4919683;29;19927;-67
2021/04/18 01:42:18;;;;;;;;;;;4.70;99.90;;;;;;4919998;29;19927;-63
2021/04/18 01:44:46;;;;;;;;;;;4.60;99.90;;;;;;4919990;29;20322;-63
2021/04/18 01:47:13;;;;;;;;;;;4.70;99.90;;;;;;4919732;29;19934;-65
2021/04/18 01:49:41;;;;;;;;;;;4.60;99.90;;;;;;4950015;29;19927;-65
2021/04/18 01:52:09;;;;;;;;;;;4.60;99.90;;;;;;4934147;29;20018;-64
2021/04/18 01:54:41;;;;;;;;;;;4.60;99.90;;;;;;4934261;29;19934;-65
2021/04/18 01:57:08;;;;;;;;;;;4.60;99.90;;;;;;4950117;29;19927;-65
2021/04/18 01:59:43;;;;;;;;;;;4.60;99.90;;;;;;4934122;29;19935;-64
2021/04/18 02:02:46;;;;;;;;;;;4.60;99.90;;;;;;4919687;29;19934;-64
2021/04/18 02:05:24;;;;;;;;;;;4.60;99.90;;;;;;4934153;29;19927;-65
2021/04/18 02:07:52;;;;;;;;;;;4.60;99.90;;;;;;4950030;29;19931;-65
2021/04/18 02:10:22;;;;;;;;;;;4.50;99.90;;;;;;4933899;29;19935;-65
2021/04/18 02:12:50;;;;;;;;;;;4.50;99.90;;;;;;4933718;29;19931;-64
2021/04/18 02:15:21;;;;;;;;;;;4.50;99.90;;;;;;4919314;29;20300;-64
2021/04/18 02:17:49;;;;;;;;;;;4.50;99.90;;;;;;4949851;29;19928;-67
2021/04/18 02:20:17;;;;;;;;;;;4.50;99.90;;;;;;4919297;29;19927;-65
2021/04/18 02:22:45;;;;;;;;;;;4.50;99.90;;;;;;4949465;28;20441;-64
2021/04/18 02:25:14;;;;;;;;;;;4.60;99.90;;;;;;4919598;29;19931;-65
2021/04/18 02:27:46;;;;;;;;;;;4.60;99.90;;;;;;4949453;28;19982;-65
2021/04/18 02:30:24;;;;;;;;;;;4.60;99.90;;;;;;4949688;29;19934;-65
2021/04/18 02:32:51;;;;;;;;;;;4.50;99.90;;;;;;4920719;29;19927;-65
2021/04/18 02:35:20;;;;;;;;;;;4.50;99.90;;;;;;4934536;29;19966;-67
2021/04/18 02:37:48;;;;;;;;;;;4.50;99.90;;;;;;4950456;29;19965;-64
2021/04/18 02:40:19;;;;;;;;;;;4.50;99.90;;;;;;4918988;29;19966;-65
2021/04/18 02:42:48;;;;;;;;;;;4.50;99.90;;;;;;4918554;29;19927;-65
2021/04/18 02:45:18;;;;;;;;;;;4.50;99.90;;;;;;4919043;29;19935;-65
2021/04/18 02:47:49;;;;;;;;;;;4.50;99.90;;;;;;4919000;29;19958;-65
2021/04/18 02:50:17;;;;;;;;;;;4.50;99.90;;;;;;4918624;29;20033;-65
2021/04/18 02:52:47;;;;;;;;;;;4.40;99.90;;;;;;4949297;29;19927;-64
2021/04/18 02:55:15;;;;;;;;;;;4.50;99.90;;;;;;4933176;29;19975;-64
2021/04/18 02:58:06;;;;;;;;;;;4.50;99.90;;;;;;4933068;29;20383;-64
2021/04/18 03:00:34;;;;;;;;;;;4.50;99.90;;;;;;4918431;29;19928;-65
2021/04/18 03:03:02;;;;;;;;;;;4.50;99.90;;;;;;4949008;28;19933;-67
2021/04/18 03:05:30;;;;;;;;;;;4.50;99.90;;;;;;4948836;29;20280;-66
2021/04/18 03:08:06;;;;;;;;;;;4.50;99.90;;;;;;4918379;29;19927;-67
2021/04/18 03:10:35;;;;;;;;;;;4.50;99.90;;;;;;4948675;29;19927;-64
2021/04/18 03:13:04;;;;;;;;;;;4.50;99.90;;;;;;4918487;29;20411;-64
2021/04/18 03:15:35;;;;;;;;;;;4.50;99.90;;;;;;4918031;29;19955;-65
2021/04/18 03:18:08;;;;;;;;;;;4.50;99.90;;;;;;4918293;29;19927;-65
2021/04/18 03:20:37;;;;;;;;;;;4.50;99.90;;;;;;4949220;29;19997;-64
2021/04/18 03:23:07;;;;;;;;;;;4.40;99.90;;;;;;4932920;29;19927;-67
2021/04/18 03:25:37;;;;;;;;;;;4.40;99.90;;;;;;4922310;29;20034;-66
2021/04/18 03:28:11;;;;;;;;;;;4.40;99.90;;;;;;4952923;29;19927;-65
2021/04/18 03:30:46;;;;;;;;;;;4.40;99.90;;;;;;4953787;29;19969;-65
2021/04/18 03:36:13;;;;;;;;;;;4.40;99.90;;;;;;4924356;29;19933;-67
2021/04/18 03:38:42;;;;;;;;;;;4.40;99.90;;;;;;4957110;29;19927;-65
2021/04/18 03:41:12;;;;;;;;;;;4.40;99.90;;;;;;4932905;29;20030;-64
2021/04/18 03:43:40;;;;;;;;;;;4.40;99.90;;;;;;4948729;29;19958;-65
2021/04/18 03:46:15;;;;;;;;;;;4.40;99.90;;;;;;4948401;29;20026;-64
2021/04/18 03:48:48;;;;;;;;;;;4.40;99.90;;;;;;4917977;29;19934;-65
2021/04/18 03:51:17;;;;;;;;;;;4.40;99.90;;;;;;4948343;29;19927;-64
2021/04/18 03:53:50;;;;;;;;;;;4.40;99.90;;;;;;4931926;29;20223;-66
2021/04/18 03:56:20;;;;;;;;;;;4.40;99.90;;;;;;4931868;29;20025;-67
2021/04/18 04:01:44;;;;;;;;;;;4.40;99.90;;;;;;4932029;29;19934;-64
2021/04/18 04:04:16;;;;;;;;;;;4.40;99.90;;;;;;4947589;29;20387;-65
2021/04/18 04:06:44;;;;;;;;;;;4.40;99.90;;;;;;4947701;29;19927;-65
2021/04/18 04:09:14;;;;;;;;;;;4.40;99.90;;;;;;4947834;29;20027;-64
2021/04/18 04:11:41;;;;;;;;;;;4.40;99.90;;;;;;4948029;29;19934;-65
2021/04/18 04:14:17;;;;;;;;;;;4.30;99.90;;;;;;4931607;29;19949;-65
2021/04/18 04:16:53;;;;;;;;;;;4.40;99.90;;;;;;4947743;29;20312;-64
2021/04/18 04:19:26;;;;;;;;;;;4.40;99.90;;;;;;4947764;29;19977;-69
2021/04/18 04:22:14;;;;;;;;;;;4.40;99.90;;;;;;4917249;29;19927;-65
2021/04/18 04:24:51;;;;;;;;;;;4.40;99.90;;;;;;4917130;29;20454;-65
2021/04/18 04:27:44;;;;;;;;;;;4.40;99.90;;;;;;4917470;29;20065;-64
2021/04/18 04:30:36;;;;;;;;;;;4.40;99.90;;;;;;4917207;29;19934;-65
2021/04/18 04:33:06;;;;;;;;;;;4.40;99.90;;;;;;4917578;29;19954;-64
2021/04/18 04:35:34;;;;;;;;;;;4.40;99.90;;;;;;4947536;29;19927;-67
2021/04/18 04:38:02;;;;;;;;;;;4.40;99.90;;;;;;4917433;29;19934;-63
2021/04/18 04:40:30;;;;;;;;;;;4.40;99.90;;;;;;4917213;29;19938;-64
2021/04/18 04:42:57;;;;;;;;;;;4.40;99.90;;;;;;4932252;29;19927;-65
2021/04/18 04:45:25;;;;;;;;;;;4.50;99.90;;;;;;4917070;29;20395;-64
2021/04/18 04:47:53;;;;;;;;;;;4.40;99.90;;;;;;4917011;29;19931;-64
2021/04/18 04:50:22;;;;;;;;;;;4.40;99.90;;;;;;4916823;29;19995;-64
2021/04/18 04:52:49;;;;;;;;;;;4.40;99.90;;;;;;4920021;29;19927;-67
2021/04/18 04:55:17;;;;;;;;;;;4.50;99.90;;;;;;4920711;29;20003;-67
2021/04/18 04:57:44;;;;;;;;;;;4.50;99.90;;;;;;4921458;29;19927;-64
2021/04/18 05:00:12;;;;;;;;;;;4.50;99.90;;;;;;4920834;29;20011;-64
2021/04/18 05:02:42;;;;;;;;;;;4.50;99.90;;;;;;4920786;29;19934;-65
2021/04/18 05:05:11;;;;;;;;;;;4.50;99.90;;;;;;4920993;29;19989;-65
2021/04/18 05:07:39;;;;;;;;;;;4.50;99.90;;;;;;4951599;29;20295;-65
2021/04/18 05:10:08;;;;;;;;;;;4.60;99.90;;;;;;4920749;29;19983;-64
2021/04/18 05:12:35;;;;;;;;;;;4.60;99.90;;;;;;4920714;29;20431;-65
2021/04/18 05:15:03;;;;;;;;;;;4.60;99.90;;;;;;4920499;29;19975;-66
2021/04/18 05:17:31;;;;;;;;;;;4.60;99.90;;;;;;4921037;29;20134;-65
2021/04/18 05:19:59;;;;;;;;;;;4.70;99.90;;;;;;4951208;29;19927;-64
2021/04/18 05:22:26;;;;;;;;;;;4.80;99.90;;;;;;4921106;29;19926;-64
2021/04/18 05:24:55;;;;;;;;;;;4.90;99.90;;;;;;4921799;29;19983;-65
2021/04/18 05:27:47;;;;;;;;;;;4.80;99.90;;;;;;4921685;29;19927;-64
2021/04/18 05:30:14;;;;;;;;;;;4.90;99.90;;;;;;4921382;29;20015;-64
2021/04/18 05:32:42;;;;;;;;;;;4.90;99.90;;;;;;4952043;29;19987;-64
2021/04/18 05:35:10;;;;;;;;;;;4.90;99.90;;;;;;4921909;29;20368;-65
2021/04/18 05:37:37;;;;;;;;;;;4.80;99.90;;;;;;4921130;29;19927;-64
2021/04/18 05:40:07;;;;;;;;;;;4.90;99.90;;;;;;4921375;29;20280;-65
2021/04/18 05:42:34;;;;;;;;;;;5.00;99.90;;;;;;4951145;29;20383;-64
2021/04/18 05:45:01;;;;;;;;;;;4.90;99.90;;;;;;4920804;29;19927;-67
2021/04/18 05:47:29;;;;;;;;;;;5.00;99.90;;;;;;4936024;29;19969;-65
2021/04/18 05:49:56;;;;;;;;;;;5.10;99.90;;;;;;4920678;29;19990;-66
2021/04/18 05:52:23;;;;;;;;;;;5.20;99.90;;;;;;4921842;29;19931;-64
2021/04/18 05:54:51;;;;;;;;;;;5.20;99.90;;;;;;4920935;29;19931;-63
2021/04/18 05:57:19;;;;;;;;;;;5.30;99.90;;;;;;4951968;29;20545;-64
2021/04/18 05:59:47;;;;;;;;;;;5.30;99.90;;;;;;4935992;29;19927;-64
2021/04/18 06:02:14;;;;;;;;;;;5.40;99.90;;;;;;4921395;29;20534;-65
2021/04/18 06:04:42;;;;;;;;;;;5.50;99.90;;;;;;4921458;29;19962;-65
2021/04/18 06:07:10;;;;;;;;;;;5.70;99.90;;;;;;4953133;29;19942;-65
2021/04/18 06:09:38;;;;;;;;;;;5.60;99.90;;;;;;4921650;29;20380;-64
2021/04/18 06:12:06;;;;;;;;;;;5.80;99.90;;;;;;4936924;29;19927;-64
2021/04/18 06:14:34;;;;;;;;;;;5.90;99.90;;;;;;4952403;29;19927;-65
2021/04/18 06:17:01;;;;;;;;;;;6.00;99.90;;;;;;4962334;29;19962;-65
2021/04/18 06:19:29;;;;;;;;;;;6.00;99.90;;;;;;4935455;29;19927;-65
2021/04/18 06:21:56;;;;;;;;;;;6.10;99.90;;;;;;4932255;29;19955;-64
2021/04/18 06:24:25;;;;;;;;;;;6.20;99.90;;;;;;4928408;29;20056;-64
2021/04/18 06:26:52;;;;;;;;;;;6.40;99.90;;;;;;4920498;29;19927;-64
2021/04/18 06:29:20;;;;;;;;;;;6.60;99.90;;;;;;4920107;29;19934;-65
2021/04/18 06:31:48;;;;;;;;;;;6.60;99.90;;;;;;4919876;29;19927;-65
2021/04/18 06:34:22;;;;;;;;;;;6.80;99.90;;;;;;4950982;29;20034;-64
2021/04/18 06:36:50;;;;;;;;;;;7.20;99.90;;;;;;4920249;29;19927;-64
2021/04/18 06:39:18;;;;;;;;;;;7.50;99.90;;;;;;4959212;29;19927;-64
2021/04/18 06:41:48;;;;;;;;;;;7.80;99.90;;;;;;4926811;29;19934;-64
2021/04/18 06:44:16;;;;;;;;;;;7.80;99.90;;;;;;4928520;29;19934;-65
2021/04/18 06:46:44;;;;;;;;;;;7.60;99.90;;;;;;4930984;29;19984;-65
2021/04/18 06:49:14;;;;;;;;;;;7.50;99.90;;;;;;4923422;29;20302;-64
2021/04/18 06:51:41;;;;;;;;;;;7.50;99.90;;;;;;4934903;29;19931;-64
2021/04/18 06:54:10;;;;;;;;;;;7.50;99.90;;;;;;4922167;29;19934;-67
2021/04/18 06:56:38;;;;;;;;;;;7.30;99.90;;;;;;4919557;29;19995;-64
2021/04/18 06:59:06;;;;;;;;;;;7.40;99.90;;;;;;4919394;29;20384;-67
2021/04/18 07:01:35;;;;;;;;;;;7.30;99.90;;;;;;4919031;29;19934;-65
2021/04/18 07:04:07;;;;;;;;;;;7.30;99.90;;;;;;4919404;29;20052;-63
2021/04/18 07:06:38;;;;;;;;;;;7.10;99.90;;;;;;4933543;29;19932;-67
2021/04/18 07:09:05;;;;;;;;;;;7.30;99.90;;;;;;4949894;29;19927;-64
2021/04/18 07:11:43;;;;;;;;;;;7.40;99.90;;;;;;4949434;28;19927;-64
2021/04/18 07:14:20;;;;;;;;;;;7.50;99.90;;;;;;4918971;29;19927;-64
2021/04/18 07:16:48;;;;;;;;;;;7.70;99.90;;;;;;4919624;29;19971;-64
2021/04/18 07:19:19;;;;;;;;;;;7.80;99.90;;;;;;4918750;29;20026;-66
2021/04/18 07:21:49;;;;;;;;;;;7.80;99.90;;;;;;4949288;29;19955;-67
2021/04/18 07:24:17;;;;;;;;;;;8.20;99.90;;;;;;4934334;29;19927;-64
2021/04/18 07:26:55;;;;;;;;;;;8.60;99.90;;;;;;4949563;29;20265;-64
2021/04/18 07:29:23;;;;;;;;;;;8.70;99.90;;;;;;4948868;29;19927;-64
2021/04/18 07:31:58;;;;;;;;;;;8.10;99.90;;;;;;4948761;29;20321;-64
2021/04/18 07:34:27;;;;;;;;;;;8.10;99.90;;;;;;4917843;29;19998;-63
2021/04/18 07:37:06;;;;;;;;;;;8.10;99.90;;;;;;4948198;29;20435;-63
2021/04/18 07:39:42;;;;;;;;;;;8.10;99.90;;;;;;4916778;29;19934;-64
2021/04/18 07:42:25;;;;;;;;;;;8.20;99.90;;;;;;4917470;29;20260;-65
2021/04/18 07:44:54;;;;;;;;;;;8.40;99.90;;;;;;4931754;29;20395;-64
2021/04/18 07:47:22;;;;;;;;;;;8.50;99.90;;;;;;4917404;29;19931;-64
2021/04/18 07:49:49;;;;;;;;;;;8.40;99.90;;;;;;4931704;29;19927;-64
2021/04/18 07:52:18;;;;;;;;;;;8.20;99.90;;;;;;4917665;29;20084;-67
2021/04/18 07:54:45;;;;;;;;;;;8.30;99.90;;;;;;4917509;29;20026;-63
2021/04/18 07:57:13;;;;;;;;;;;8.30;99.90;;;;;;4917720;29;19934;-63
2021/04/18 07:59:40;;;;;;;;;;;8.10;99.90;;;;;;4917675;29;19954;-64
2021/04/18 08:02:13;;;;;;;;;;;8.30;99.90;;;;;;4917312;29;19927;-64
2021/04/18 08:04:42;;;;;;;;;;;8.50;99.90;;;;;;4918276;29;19977;-66
2021/04/18 08:07:10;;;;;;;;;;;8.70;99.90;;;;;;4917307;29;19970;-64
2021/04/18 08:09:38;;;;;;;;;;;9.20;99.90;;;;;;4917156;29;19979;-63
2021/04/18 08:12:14;;;;;;;;;;;9.60;99.90;;;;;;4947988;29;19927;-64
2021/04/18 08:14:44;;;;;;;;;;;10.00;99.90;;;;;;4932071;29;19943;-64
2021/04/18 08:17:13;;;;;;;;;;;9.90;99.90;;;;;;4918257;29;19959;-66
2021/04/18 08:19:53;;;;;;;;;;;10.80;99.90;;;;;;4948059;29;19938;-64
2021/04/18 08:22:21;;;;;;;;;;;11.20;99.30;;;;;;4917352;29;19950;-64
2021/04/18 08:25:04;;;;;;;;;;;10.70;99.30;;;;;;4917078;29;19967;-67
2021/04/18 08:27:59;;;;;;;;;;;10.00;99.90;;;;;;4931168;29;19963;-65
2021/04/18 08:30:27;;;;;;;;;;;9.90;99.90;;;;;;4917623;29;19958;-64
2021/04/18 08:32:55;;;;;;;;;;;10.50;99.90;;;;;;4917309;29;19974;-66
2021/04/18 08:35:23;;;;;;;;;;;10.70;99.60;;;;;;4947413;29;20038;-64
2021/04/18 08:38:06;;;;;;;;;;;10.40;99.20;;;;;;4916814;29;20002;-63
2021/04/18 08:40:34;;;;;;;;;;;10.00;99.90;;;;;;4916921;29;19928;-65
2021/04/18 08:43:16;;;;;;;;;;;10.00;99.90;;;;;;4917562;29;20351;-64
2021/04/18 08:45:47;;;;;;;;;;;10.30;99.90;;;;;;4917354;29;19952;-64
2021/04/18 08:48:15;;;;;;;;;;;9.50;99.90;;;;;;4916994;29;19927;-65
2021/04/18 08:50:53;;;;;;;;;;;9.90;99.90;;;;;;4917791;29;19927;-64
2021/04/18 08:53:21;;;;;;;;;;;9.90;99.90;;;;;;4917522;29;19931;-64
2021/04/18 08:55:52;;;;;;;;;;;9.60;99.90;;;;;;4916944;29;20372;-65
2021/04/18 08:58:29;;;;;;;;;;;9.80;99.90;;;;;;4947532;29;19927;-64
2021/04/18 09:01:04;;;;;;;;;;;9.50;99.90;;;;;;4948166;29;19934;-63
2021/04/18 09:03:32;;;;;;;;;;;9.50;99.90;;;;;;4917716;29;19927;-64
2021/04/18 09:06:01;;;;;;;;;;;9.60;99.90;;;;;;4947675;29;19942;-64
2021/04/18 09:08:29;;;;;;;;;;;9.40;99.90;;;;;;4916778;29;20018;-67
2021/04/18 09:11:04;;;;;;;;;;;9.40;99.90;;;;;;4917497;29;19927;-67
2021/04/18 09:13:32;;;;;;;;;;;9.40;99.90;;;;;;4948689;28;19937;-71
2021/04/18 09:16:21;;;;;;;;;;;9.30;99.90;;;;;;4948499;29;20018;-68
2021/04/18 09:18:49;;;;;;;;;;;8.80;99.90;;;;;;4931908;29;19928;-68
2021/04/18 09:21:16;;;;;;;;;;;8.80;99.90;;;;;;4947396;29;20472;-68
2021/04/18 09:23:57;;;;;;;;;;;9.00;99.90;;;;;;4917167;29;19934;-67
2021/04/18 09:26:26;;;;;;;;;;;8.80;99.90;;;;;;4931285;29;19927;-67
2021/04/18 09:29:06;;;;;;;;;;;9.00;99.90;;;;;;4916775;29;20014;-68
2021/04/18 09:31:34;;;;;;;;;;;9.00;99.90;;;;;;4947410;29;19955;-67
2021/04/18 09:34:03;;;;;;;;;;;9.00;99.90;;;;;;4947213;29;19931;-68
2021/04/18 09:36:30;;;;;;;;;;;9.10;99.90;;;;;;4918222;29;19927;-68
2021/04/18 09:38:57;;;;;;;;;;;9.00;99.90;;;;;;4920859;29;19927;-68
2021/04/18 09:41:26;;;;;;;;;;;8.80;99.90;;;;;;4950690;29;20009;-67
2021/04/18 09:43:58;;;;;;;;;;;9.00;99.90;;;;;;4952221;28;20410;-68
2021/04/18 09:46:25;;;;;;;;;;;9.20;99.90;;;;;;4952566;29;20006;-69
2021/04/18 09:49:00;;;;;;;;;;;9.00;99.90;;;;;;4940221;29;19927;-68
2021/04/18 09:51:50;;;;;;;;;;;9.50;99.90;;;;;;4925784;29;19975;-68
2021/04/18 09:54:26;;;;;;;;;;;9.20;99.90;;;;;;4929879;29;19927;-68
2021/04/18 09:57:14;;;;;;;;;;;9.80;99.90;;;;;;4924230;29;20026;-70
2021/04/18 09:59:42;;;;;;;;;;;10.30;99.90;;;;;;4920935;29;19950;-67
2021/04/18 10:02:10;;;;;;;;;;;10.20;99.90;;;;;;4919820;28;19950;-67
2021/04/18 10:04:38;;;;;;;;;;;10.10;99.90;;;;;;4920205;29;19934;-66
2021/04/18 10:07:06;;;;;;;;;;;10.30;99.90;;;;;;4921931;29;19927;-67
2021/04/18 10:09:49;;;;;;;;;;;10.00;99.90;;;;;;4920448;29;20022;-67
2021/04/18 10:12:17;;;;;;;;;;;9.80;99.90;;;;;;4921665;29;19982;-67
2021/04/18 10:14:44;;;;;;;;;;;9.40;99.90;;;;;;4936507;29;19978;-68
2021/04/18 10:17:12;;;;;;;;;;;9.50;99.90;;;;;;4920508;28;20332;-66
2021/04/18 10:19:50;;;;;;;;;;;9.70;99.90;;;;;;4951669;29;19927;-68
2021/04/18 10:22:17;;;;;;;;;;;9.70;99.90;;;;;;4920439;29;20002;-68
2021/04/18 10:24:48;;;;;;;;;;;9.70;99.90;;;;;;4920647;29;20409;-66
2021/04/18 10:27:15;;;;;;;;;;;9.80;99.90;;;;;;4920030;29;19927;-66
2021/04/18 10:29:44;;;;;;;;;;;9.70;99.90;;;;;;4920149;29;19927;-67
2021/04/18 10:32:16;;;;;;;;;;;9.50;99.90;;;;;;4919059;28;19927;-67
2021/04/18 10:34:44;;;;;;;;;;;9.70;99.90;;;;;;4920052;29;19931;-67
2021/04/18 10:37:11;;;;;;;;;;;9.60;99.90;;;;;;4919812;29;20426;-68
2021/04/18 10:39:39;;;;;;;;;;;10.10;99.90;;;;;;4919608;29;19990;-67
2021/04/18 10:42:06;;;;;;;;;;;10.60;99.90;;;;;;4950551;29;19934;-68
2021/04/18 10:44:34;;;;;;;;;;;10.40;99.90;;;;;;4934156;29;19934;-69
2021/04/18 10:47:03;;;;;;;;;;;10.20;99.90;;;;;;4918614;28;19941;-66
2021/04/18 10:49:31;;;;;;;;;;;10.30;99.90;;;;;;4919710;29;20014;-67
2021/04/18 10:51:59;;;;;;;;;;;10.30;99.90;;;;;;4920419;29;19974;-66
2021/04/18 10:54:26;;;;;;;;;;;10.10;99.90;;;;;;4935140;29;20013;-67
2021/04/18 10:56:54;;;;;;;;;;;10.40;99.90;;;;;;4935585;29;19934;-66
2021/04/18 10:59:22;;;;;;;;;;;10.30;99.70;;;;;;4949672;28;19935;-66
2021/04/18 11:01:50;;;;;;;;;;;10.50;99.90;;;;;;4918170;29;19958;-67
2021/04/18 11:04:19;;;;;;;;;;;10.60;99.80;;;;;;4917050;29;19934;-66
2021/04/18 11:06:48;;;;;;;;;;;10.40;99.50;;;;;;4918876;29;20241;-67
2021/04/18 11:09:15;;;;;;;;;;;10.80;99.60;;;;;;4919283;29;19927;-66
2021/04/18 11:11:43;;;;;;;;;;;10.60;99.50;;;;;;4919282;29;20391;-66
2021/04/18 11:14:10;;;;;;;;;;;10.70;99.40;;;;;;4938713;29;19935;-67
2021/04/18 11:16:38;;;;;;;;;;;11.00;99.10;;;;;;4924196;28;20301;-67
2021/04/18 11:19:06;;;;;;;;;;;11.00;98.90;;;;;;4949626;29;19955;-66
2021/04/18 11:21:34;;;;;;;;;;;11.20;98.70;;;;;;4933624;29;19942;-67
2021/04/18 11:24:02;;;;;;;;;;;11.20;98.60;;;;;;4918949;29;20021;-67
2021/04/18 11:26:29;;;;;;;;;;;11.00;98.70;;;;;;4923247;29;19927;-67
2021/04/18 11:28:57;;;;;;;;;;;11.00;99.00;;;;;;4928533;29;19931;-67
2021/04/18 11:31:25;;;;;;;;;;;11.00;98.60;;;;;;4924777;29;19958;-67
2021/04/18 11:33:53;;;;;;;;;;;10.90;98.70;;;;;;4920488;29;19927;-67
2021/04/18 11:36:21;;;;;;;;;;;11.40;98.90;;;;;;4918355;29;19931;-68
2021/04/18 11:38:49;;;;;;;;;;;11.50;98.60;;;;;;4933053;29;19934;-67
2021/04/18 11:41:31;;;;;;;;;;;11.30;98.40;;;;;;4948813;29;20311;-66
2021/04/18 11:43:58;;;;;;;;;;;11.50;98.20;;;;;;4918610;29;19928;-66
2021/04/18 11:46:30;;;;;;;;;;;11.30;98.20;;;;;;4948434;28;20284;-67
2021/04/18 11:48:57;;;;;;;;;;;11.90;97.50;;;;;;4949730;29;20372;-67
2021/04/18 11:51:25;;;;;;;;;;;12.10;97.20;;;;;;4932876;29;20365;-68
2021/04/18 11:53:53;;;;;;;;;;;12.00;97.00;;;;;;4918196;29;19974;-67
2021/04/18 11:56:20;;;;;;;;;;;12.20;97.10;;;;;;4919036;29;19966;-68
2021/04/18 11:58:48;;;;;;;;;;;12.20;97.20;;;;;;4935934;29;20033;-67
2021/04/18 12:01:15;;;;;;;;;;;12.20;97.20;;;;;;4917297;28;19938;-69
2021/04/18 12:03:43;;;;;;;;;;;12.40;96.70;;;;;;4918016;29;19934;-67
2021/04/18 12:06:37;;;;;;;;;;;12.90;96.30;;;;;;4921409;29;19931;-68
2021/04/18 12:09:06;;;;;;;;;;;13.30;94.90;;;;;;4932623;29;19927;-67
2021/04/18 12:11:33;;;;;;;;;;;13.60;94.70;;;;;;4919177;29;19966;-67
2021/04/18 12:14:01;;;;;;;;;;;13.80;94.00;;;;;;4933530;29;20466;-68
2021/04/18 12:16:34;;;;;;;;;;;13.50;94.40;;;;;;4917383;28;20013;-67
2021/04/18 12:19:03;;;;;;;;;;;13.40;94.00;;;;;;4919078;29;19963;-66
2021/04/18 12:21:32;;;;;;;;;;;12.80;94.50;;;;;;4947879;29;21917;-66
2021/04/18 12:24:00;;;;;;;;;;;13.10;94.30;;;;;;4917964;29;19927;-67
2021/04/18 12:26:28;;;;;;;;;;;12.40;94.50;;;;;;4918401;29;19970;-67
2021/04/18 12:28:57;;;;;;;;;;;13.30;94.40;;;;;;4930665;29;20064;-67
2021/04/18 12:31:24;;;;;;;;;;;13.30;93.50;;;;;;4916672;28;19927;-67
2021/04/18 12:33:52;;;;;;;;;;;13.50;92.90;;;;;;4917359;29;20422;-68
2021/04/18 12:36:19;;;;;;;;;;;13.40;92.70;;;;;;4932012;29;20342;-67
2021/04/18 12:38:47;;;;;;;76.10;73.47;;;13.60;92.80;;;;;;4916833;29;20785;-67
2021/04/18 12:41:14;;;;;;;14.10;9.73;;;13.40;92.70;;;;;;4917107;29;20181;-67
2021/04/18 12:43:43;;;;;;;15.85;11.18;;;13.40;93.00;;;;;;4916168;29;20918;-66
2021/04/18 12:46:11;;;;;;;18.90;12.27;;;13.30;92.80;;;;;;4914763;28;20429;-67
2021/04/18 12:48:39;;;;;;;16.35;12.23;;;13.10;93.20;;;;;;4930788;29;20449;-66
2021/04/18 12:51:06;;;;;;;14.87;12.33;;;12.50;93.50;;;;;;4916330;29;20420;-67
2021/04/18 12:56:29;;;;;;;15.23;11.30;;;12.10;94.90;;;;;;4931223;29;20781;-67
2021/04/18 12:58:58;;;;;;;15.73;11.95;;;12.40;94.20;;;;;;4917115;29;20448;-69
2021/04/18 13:01:28;;;;;;;15.45;11.75;;;12.40;94.50;;;;;;4915495;29;20528;-70
2021/04/18 13:03:56;;;;;;;16.15;11.95;;;12.40;94.50;;;;;;4930453;29;20437;-67
2021/04/18 13:06:23;;;;;;;13.43;10.13;;;12.20;94.50;;;;;;4930651;29;20516;-67
2021/04/18 13:08:50;;;;;;;15.15;10.55;;;12.00;94.40;;;;;;4898960;29;20421;-67
2021/04/18 13:11:19;;;;;;;14.80;10.63;;;11.90;94.60;;;;;;4914793;29;20842;-66
2021/04/18 13:13:46;;;;;;;15.63;11.30;;;12.30;94.40;;;;;;4918746;29;20464;-67
2021/04/18 13:16:15;;;;;;;13.57;10.98;;;12.00;94.60;;;;;;4901208;29;20427;-68
2021/04/18 13:18:42;;;;;;;16.17;11.40;;;12.10;95.30;;;;;;4919531;29;20456;-67
2021/04/18 13:21:13;;;;;;;15.05;11.05;;;12.70;94.50;;;;;;4919799;29;20507;-69
2021/04/18 13:23:41;;;;;;;15.73;11.60;;;12.50;94.00;;;;;;4919183;29;20512;-67
2021/04/18 13:26:09;;;;;;;14.85;11.38;;;12.30;94.50;;;;;;4917206;29;20940;-67
2021/04/18 13:28:37;;;;;;;16.63;11.00;;;12.30;94.10;;;;;;4932852;29;20504;-68
2021/04/18 13:31:04;;;;;;;13.30;10.70;;;12.70;94.50;;;;;;4917730;28;20511;-67
2021/04/18 13:33:33;;;;;;;14.05;11.07;;;12.80;93.70;;;;;;4917954;29;20505;-67
2021/04/18 13:36:01;;;;;;;15.15;9.57;;;13.10;93.40;;;;;;4933301;29;20443;-67
2021/04/18 13:38:29;;;;;;;11.90;9.88;;;13.30;93.30;;;;;;4918646;29;20418;-67
2021/04/18 13:40:57;;;;;;;13.93;10.50;;;13.10;93.60;;;;;;4949571;29;20452;-65
2021/04/18 13:43:31;;;;;;;13.85;10.27;;;12.90;94.00;;;;;;4933676;29;20508;-67
2021/04/18 13:46:03;;;;;;;13.27;10.65;;;12.60;94.10;;;;;;4916406;29;20775;-66
2021/04/18 13:48:31;;;;;;;12.88;10.30;;;12.40;94.90;;;;;;4918561;29;20762;-66
2021/04/18 13:50:59;;;;;;;12.75;10.00;;;12.40;94.80;;;;;;4932969;29;20421;-67
2021/04/18 13:53:26;;;;;;;15.77;11.77;;;12.80;94.60;;;;;;4917162;29;20432;-66
2021/04/18 13:55:55;;;;;;;15.05;11.00;;;12.60;94.30;;;;;;4918372;29;20959;-67
2021/04/18 13:58:23;;;;;;;13.85;10.30;;;12.90;94.50;;;;;;4918510;29;20409;-66
2021/04/18 14:00:50;;;;;;;14.00;9.95;;;13.70;93.50;;;;;;4932938;28;20421;-66
2021/04/18 14:03:32;;;;;;;13.48;9.90;;;14.20;92.60;;;;;;4921047;29;20417;-67
2021/04/18 14:06:06;;;;;;;12.82;10.10;;;15.10;91.40;;;;;;4918739;29;20429;-67
2021/04/18 14:08:34;;;;;;;11.18;9.43;;;15.50;90.20;;;;;;4932569;29;20996;-66
2021/04/18 14:11:02;;;;;;;12.93;9.10;;;14.60;90.40;;;;;;4932936;29;20826;-66
2021/04/18 14:13:29;;;;;;;13.25;9.52;;;14.30;90.90;;;;;;4949361;29;20420;-66
2021/04/18 14:15:56;;;;;;;12.45;9.57;;;14.50;91.20;;;;;;4916921;29;20414;-65
2021/04/18 14:18:25;;;;;;;11.68;9.68;;;14.80;91.30;;;;;;4950273;29;20446;-69
2021/04/18 14:20:54;;;;;;;11.60;8.90;;;15.10;89.50;;;;;;4918829;29;20413;-67
2021/04/18 14:23:24;;;;;;;12.52;8.93;;;14.40;89.90;;;;;;4920422;29;20422;-66
2021/04/18 14:25:51;;;;;;;13.02;9.10;;;15.80;87.20;;;;;;4932473;29;20433;-66
2021/04/18 14:28:19;;;;;;;11.05;9.38;;;16.10;85.90;;;;;;4922580;29;20433;-66
2021/04/18 14:30:47;;;;;;;12.50;9.50;;;16.80;82.30;;;;;;4920493;28;20494;-66
2021/04/18 14:33:15;;;;;;;13.27;9.40;;;16.40;81.70;;;;;;4919201;29;20421;-66
2021/04/18 14:35:43;;;;;;;11.70;8.57;;;15.70;83.00;;;;;;4950980;29;20432;-68
2021/04/18 14:38:12;;;;;;;11.25;8.60;;;15.60;84.30;;;;;;4951847;29;20421;-68